sensor_id;sensor_type;location;lat;lon;timestamp;P1;durP1;ratioP1;P2;durP2;ratioP2
43146;SDS011;28752;48.266;7.402;2022-11-20T00:01:37;2.57;;;1.33;;
43146;SDS011;28752;48.266;7.402;2022-11-20T00:04:03;3.00;;;1.27;;
43146;SDS011;28752;48.266;7.402;2022-11-20T00:06:28;4.43;;;1.23;;
43146;SDS011;28752;48.266;7.402;2022-11-20T00:08:55;3.72;;;1.90;;
43146;SDS011;28752;48.266;7.402;2022-11-20T00:11:22;2.97;;;1.33;;
43146;SDS011;28752;48.266;7.402;2022-11-20T00:13:50;4.70;;;1.58;;
43146;SDS011;28752;48.266;7.402;2022-11-20T00:16:19;5.00;;;1.45;;
43146;SDS011;28752;48.266;7.402;2022-11-20T00:18:46;2.03;;;0.93;;
43146;SDS011;28752;48.266;7.402;2022-11-20T00:21:14;1.50;;;0.82;;
43146;SDS011;28752;48.266;7.402;2022-11-20T00:23:41;1.02;;;0.70;;
43146;SDS011;28752;48.266;7.402;2022-11-20T00:26:08;1.45;;;0.65;;
43146;SDS011;28752;48.266;7.402;2022-11-20T00:28:36;1.23;;;0.52;;
43146;SDS011;28752;48.266;7.402;2022-11-20T00:31:05;0.38;;;0.15;;
43146;SDS011;28752;48.266;7.402;2022-11-20T00:33:33;0.65;;;0.30;;
43146;SDS011;28752;48.266;7.402;2022-11-20T00:36:03;1.98;;;0.52;;
43146;SDS011;28752;48.266;7.402;2022-11-20T00:38:31;0.50;;;0.32;;
43146;SDS011;28752;48.266;7.402;2022-11-20T00:41:07;2.55;;;1.05;;
43146;SDS011;28752;48.266;7.402;2022-11-20T00:43:34;0.63;;;0.50;;
43146;SDS011;28752;48.266;7.402;2022-11-20T00:46:02;1.33;;;0.50;;
43146;SDS011;28752;48.266;7.402;2022-11-20T00:48:32;1.10;;;0.82;;
43146;SDS011;28752;48.266;7.402;2022-11-20T00:50:57;2.08;;;0.50;;
43146;SDS011;28752;48.266;7.402;2022-11-20T00:53:23;0.47;;;0.47;;
43146;SDS011;28752;48.266;7.402;2022-11-20T00:55:56;1.08;;;0.50;;
43146;SDS011;28752;48.266;7.402;2022-11-20T00:58:23;1.90;;;1.05;;
43146;SDS011;28752;48.266;7.402;2022-11-20T01:00:50;0.45;;;0.17;;
43146;SDS011;28752;48.266;7.402;2022-11-20T01:03:16;1.30;;;0.60;;
43146;SDS011;28752;48.266;7.402;2022-11-20T01:10:33;2.70;;;0.80;;
43146;SDS011;28752;48.266;7.402;2022-11-20T01:12:58;4.13;;;1.50;;
43146;SDS011;28752;48.266;7.402;2022-11-20T01:15:41;1.58;;;0.80;;
43146;SDS011;28752;48.266;7.402;2022-11-20T01:18:07;2.87;;;1.43;;
43146;SDS011;28752;48.266;7.402;2022-11-20T01:20:35;3.60;;;1.20;;
43146;SDS011;28752;48.266;7.402;2022-11-20T01:23:02;2.13;;;0.90;;
43146;SDS011;28752;48.266;7.402;2022-11-20T01:25:28;1.90;;;0.98;;
43146;SDS011;28752;48.266;7.402;2022-11-20T01:27:54;1.85;;;1.00;;
43146;SDS011;28752;48.266;7.402;2022-11-20T01:30:19;1.33;;;0.97;;
43146;SDS011;28752;48.266;7.402;2022-11-20T01:32:44;2.03;;;0.83;;
43146;SDS011;28752;48.266;7.402;2022-11-20T01:35:10;1.97;;;0.83;;
43146;SDS011;28752;48.266;7.402;2022-11-20T01:37:35;2.17;;;1.00;;
43146;SDS011;28752;48.266;7.402;2022-11-20T01:40:01;5.47;;;1.57;;
43146;SDS011;28752;48.266;7.402;2022-11-20T01:42:26;2.40;;;1.00;;
43146;SDS011;28752;48.266;7.402;2022-11-20T01:48:13;1.83;;;0.90;;
43146;SDS011;28752;48.266;7.402;2022-11-20T01:50:39;2.33;;;1.02;;
43146;SDS011;28752;48.266;7.402;2022-11-20T01:53:08;1.58;;;0.70;;
43146;SDS011;28752;48.266;7.402;2022-11-20T01:55:39;2.70;;;0.85;;
43146;SDS011;28752;48.266;7.402;2022-11-20T01:58:10;2.40;;;1.02;;
43146;SDS011;28752;48.266;7.402;2022-11-20T02:00:36;3.20;;;1.55;;
43146;SDS011;28752;48.266;7.402;2022-11-20T02:03:12;4.33;;;1.70;;
43146;SDS011;28752;48.266;7.402;2022-11-20T02:08:20;3.92;;;1.95;;
43146;SDS011;28752;48.266;7.402;2022-11-20T02:10:48;4.85;;;1.45;;
43146;SDS011;28752;48.266;7.402;2022-11-20T02:13:13;3.23;;;1.20;;
43146;SDS011;28752;48.266;7.402;2022-11-20T02:15:58;3.17;;;1.67;;
43146;SDS011;28752;48.266;7.402;2022-11-20T02:18:23;1.47;;;0.73;;
43146;SDS011;28752;48.266;7.402;2022-11-20T02:20:59;3.63;;;1.02;;
43146;SDS011;28752;48.266;7.402;2022-11-20T02:24:13;2.55;;;1.75;;
43146;SDS011;28752;48.266;7.402;2022-11-20T02:26:30;1.63;;;1.05;;
43146;SDS011;28752;48.266;7.402;2022-11-20T02:28:58;2.63;;;1.25;;
43146;SDS011;28752;48.266;7.402;2022-11-20T02:31:26;1.33;;;0.68;;
43146;SDS011;28752;48.266;7.402;2022-11-20T02:33:55;2.40;;;0.90;;
43146;SDS011;28752;48.266;7.402;2022-11-20T02:36:24;2.88;;;1.50;;
43146;SDS011;28752;48.266;7.402;2022-11-20T02:38:52;2.97;;;1.42;;
43146;SDS011;28752;48.266;7.402;2022-11-20T02:41:18;3.58;;;1.20;;
43146;SDS011;28752;48.266;7.402;2022-11-20T02:43:43;3.90;;;1.67;;
43146;SDS011;28752;48.266;7.402;2022-11-20T02:46:09;3.58;;;1.05;;
43146;SDS011;28752;48.266;7.402;2022-11-20T02:48:34;2.17;;;1.37;;
43146;SDS011;28752;48.266;7.402;2022-11-20T02:51:00;2.77;;;1.33;;
43146;SDS011;28752;48.266;7.402;2022-11-20T02:53:25;1.43;;;0.83;;
43146;SDS011;28752;48.266;7.402;2022-11-20T02:55:51;2.23;;;1.10;;
43146;SDS011;28752;48.266;7.402;2022-11-20T02:58:16;2.77;;;1.13;;
43146;SDS011;28752;48.266;7.402;2022-11-20T03:00:41;3.33;;;1.37;;
43146;SDS011;28752;48.266;7.402;2022-11-20T03:03:07;3.97;;;1.40;;
43146;SDS011;28752;48.266;7.402;2022-11-20T03:05:32;2.07;;;0.70;;
43146;SDS011;28752;48.266;7.402;2022-11-20T03:07:57;6.13;;;1.47;;
43146;SDS011;28752;48.266;7.402;2022-11-20T03:10:23;1.57;;;0.60;;
43146;SDS011;28752;48.266;7.402;2022-11-20T03:12:52;1.57;;;1.20;;
43146;SDS011;28752;48.266;7.402;2022-11-20T03:15:19;2.60;;;0.95;;
43146;SDS011;28752;48.266;7.402;2022-11-20T03:17:44;1.67;;;0.90;;
43146;SDS011;28752;48.266;7.402;2022-11-20T03:20:10;2.50;;;1.57;;
43146;SDS011;28752;48.266;7.402;2022-11-20T03:22:35;2.38;;;0.95;;
43146;SDS011;28752;48.266;7.402;2022-11-20T03:25:01;1.58;;;0.82;;
43146;SDS011;28752;48.266;7.402;2022-11-20T03:27:29;3.20;;;1.30;;
43146;SDS011;28752;48.266;7.402;2022-11-20T03:29:57;3.13;;;1.10;;
43146;SDS011;28752;48.266;7.402;2022-11-20T03:32:22;4.17;;;2.10;;
43146;SDS011;28752;48.266;7.402;2022-11-20T03:34:48;3.13;;;1.30;;
43146;SDS011;28752;48.266;7.402;2022-11-20T03:37:13;2.73;;;1.10;;
43146;SDS011;28752;48.266;7.402;2022-11-20T03:39:38;2.50;;;1.50;;
43146;SDS011;28752;48.266;7.402;2022-11-20T03:42:04;0.97;;;0.60;;
43146;SDS011;28752;48.266;7.402;2022-11-20T03:44:49;0.20;;;0.15;;
43146;SDS011;28752;48.266;7.402;2022-11-20T03:47:14;0.10;;;0.10;;
43146;SDS011;28752;48.266;7.402;2022-11-20T03:49:40;0.77;;;0.37;;
43146;SDS011;28752;48.266;7.402;2022-11-20T03:52:05;3.53;;;1.57;;
43146;SDS011;28752;48.266;7.402;2022-11-20T03:54:30;1.77;;;0.30;;
43146;SDS011;28752;48.266;7.402;2022-11-20T03:56:56;0.27;;;0.10;;
43146;SDS011;28752;48.266;7.402;2022-11-20T03:59:21;1.00;;;0.70;;
43146;SDS011;28752;48.266;7.402;2022-11-20T04:01:46;1.93;;;1.03;;
43146;SDS011;28752;48.266;7.402;2022-11-20T04:04:12;2.17;;;1.23;;
43146;SDS011;28752;48.266;7.402;2022-11-20T04:06:37;2.37;;;1.00;;
43146;SDS011;28752;48.266;7.402;2022-11-20T04:09:03;1.87;;;1.07;;
43146;SDS011;28752;48.266;7.402;2022-11-20T04:11:30;1.30;;;0.65;;
43146;SDS011;28752;48.266;7.402;2022-11-20T04:13:58;0.98;;;0.60;;
43146;SDS011;28752;48.266;7.402;2022-11-20T04:16:25;2.55;;;0.95;;
43146;SDS011;28752;48.266;7.402;2022-11-20T04:21:17;2.42;;;1.27;;
43146;SDS011;28752;48.266;7.402;2022-11-20T04:23:43;1.40;;;0.90;;
43146;SDS011;28752;48.266;7.402;2022-11-20T04:26:09;3.37;;;1.33;;
43146;SDS011;28752;48.266;7.402;2022-11-20T04:28:36;2.70;;;0.95;;
43146;SDS011;28752;48.266;7.402;2022-11-20T04:31:06;1.65;;;0.82;;
43146;SDS011;28752;48.266;7.402;2022-11-20T04:33:33;2.65;;;1.20;;
43146;SDS011;28752;48.266;7.402;2022-11-20T04:38:26;1.38;;;1.00;;
43146;SDS011;28752;48.266;7.402;2022-11-20T04:40:55;2.47;;;0.47;;
43146;SDS011;28752;48.266;7.402;2022-11-20T04:43:24;1.98;;;0.85;;
43146;SDS011;28752;48.266;7.402;2022-11-20T04:45:50;2.33;;;0.60;;
43146;SDS011;28752;48.266;7.402;2022-11-20T04:48:19;2.10;;;0.93;;
43146;SDS011;28752;48.266;7.402;2022-11-20T04:50:45;3.28;;;1.60;;
43146;SDS011;28752;48.266;7.402;2022-11-20T04:53:10;1.23;;;0.50;;
43146;SDS011;28752;48.266;7.402;2022-11-20T04:55:35;0.50;;;0.23;;
43146;SDS011;28752;48.266;7.402;2022-11-20T04:58:01;2.07;;;0.80;;
43146;SDS011;28752;48.266;7.402;2022-11-20T05:00:26;3.03;;;0.97;;
43146;SDS011;28752;48.266;7.402;2022-11-20T05:02:51;1.10;;;0.80;;
43146;SDS011;28752;48.266;7.402;2022-11-20T05:05:17;2.23;;;1.03;;
43146;SDS011;28752;48.266;7.402;2022-11-20T05:07:43;1.38;;;0.73;;
43146;SDS011;28752;48.266;7.402;2022-11-20T05:10:08;1.87;;;1.00;;
43146;SDS011;28752;48.266;7.402;2022-11-20T05:12:34;1.57;;;0.53;;
43146;SDS011;28752;48.266;7.402;2022-11-20T05:14:59;2.03;;;0.80;;
43146;SDS011;28752;48.266;7.402;2022-11-20T05:17:24;1.27;;;0.70;;
43146;SDS011;28752;48.266;7.402;2022-11-20T05:19:50;0.70;;;0.43;;
43146;SDS011;28752;48.266;7.402;2022-11-20T05:22:15;1.27;;;0.50;;
43146;SDS011;28752;48.266;7.402;2022-11-20T05:24:40;0.70;;;0.27;;
43146;SDS011;28752;48.266;7.402;2022-11-20T05:27:06;1.20;;;0.43;;
43146;SDS011;28752;48.266;7.402;2022-11-20T05:29:31;0.17;;;0.10;;
43146;SDS011;28752;48.266;7.402;2022-11-20T05:31:56;0.90;;;0.43;;
43146;SDS011;28752;48.266;7.402;2022-11-20T05:34:22;0.20;;;0.20;;
43146;SDS011;28752;48.266;7.402;2022-11-20T05:36:47;0.47;;;0.07;;
43146;SDS011;28752;48.266;7.402;2022-11-20T05:39:13;0.43;;;0.13;;
43146;SDS011;28752;48.266;7.402;2022-11-20T05:41:38;0.00;;;0.00;;
43146;SDS011;28752;48.266;7.402;2022-11-20T05:44:03;0.83;;;0.30;;
43146;SDS011;28752;48.266;7.402;2022-11-20T05:46:29;1.17;;;0.30;;
43146;SDS011;28752;48.266;7.402;2022-11-20T05:48:54;0.83;;;0.33;;
43146;SDS011;28752;48.266;7.402;2022-11-20T05:51:20;0.60;;;0.30;;
43146;SDS011;28752;48.266;7.402;2022-11-20T05:53:46;0.27;;;0.27;;
43146;SDS011;28752;48.266;7.402;2022-11-20T05:56:12;0.70;;;0.40;;
43146;SDS011;28752;48.266;7.402;2022-11-20T05:58:40;1.35;;;0.28;;
43146;SDS011;28752;48.266;7.402;2022-11-20T06:03:41;0.43;;;0.32;;
43146;SDS011;28752;48.266;7.402;2022-11-20T06:06:08;1.25;;;0.75;;
43146;SDS011;28752;48.266;7.402;2022-11-20T06:08:34;1.08;;;0.30;;
43146;SDS011;28752;48.266;7.402;2022-11-20T06:11:03;0.10;;;0.10;;
43146;SDS011;28752;48.266;7.402;2022-11-20T06:13:30;1.80;;;0.50;;
43146;SDS011;28752;48.266;7.402;2022-11-20T06:15:55;0.60;;;0.23;;
43146;SDS011;28752;48.266;7.402;2022-11-20T06:18:20;0.70;;;0.20;;
43146;SDS011;28752;48.266;7.402;2022-11-20T06:20:46;0.80;;;0.40;;
43146;SDS011;28752;48.266;7.402;2022-11-20T06:23:12;0.17;;;0.10;;
43146;SDS011;28752;48.266;7.402;2022-11-20T06:25:38;1.30;;;0.50;;
43146;SDS011;28752;48.266;7.402;2022-11-20T06:28:04;0.82;;;0.40;;
43146;SDS011;28752;48.266;7.402;2022-11-20T06:30:30;0.20;;;0.00;;
43146;SDS011;28752;48.266;7.402;2022-11-20T06:32:55;0.43;;;0.10;;
43146;SDS011;28752;48.266;7.402;2022-11-20T06:35:20;0.50;;;0.30;;
43146;SDS011;28752;48.266;7.402;2022-11-20T06:37:46;1.30;;;0.20;;
43146;SDS011;28752;48.266;7.402;2022-11-20T06:40:11;0.90;;;0.20;;
43146;SDS011;28752;48.266;7.402;2022-11-20T06:42:37;0.20;;;0.00;;
43146;SDS011;28752;48.266;7.402;2022-11-20T06:45:02;0.00;;;0.00;;
43146;SDS011;28752;48.266;7.402;2022-11-20T06:47:28;0.35;;;0.30;;
43146;SDS011;28752;48.266;7.402;2022-11-20T06:49:53;1.57;;;0.67;;
43146;SDS011;28752;48.266;7.402;2022-11-20T06:52:18;0.57;;;0.23;;
43146;SDS011;28752;48.266;7.402;2022-11-20T06:54:44;0.47;;;0.20;;
43146;SDS011;28752;48.266;7.402;2022-11-20T06:57:09;0.03;;;0.03;;
43146;SDS011;28752;48.266;7.402;2022-11-20T06:59:34;0.90;;;0.40;;
43146;SDS011;28752;48.266;7.402;2022-11-20T07:02:00;0.30;;;0.20;;
43146;SDS011;28752;48.266;7.402;2022-11-20T07:04:25;0.30;;;0.07;;
43146;SDS011;28752;48.266;7.402;2022-11-20T07:06:50;0.20;;;0.13;;
43146;SDS011;28752;48.266;7.402;2022-11-20T07:09:16;0.10;;;0.10;;
43146;SDS011;28752;48.266;7.402;2022-11-20T07:11:41;0.30;;;0.20;;
43146;SDS011;28752;48.266;7.402;2022-11-20T07:14:06;1.20;;;0.50;;
43146;SDS011;28752;48.266;7.402;2022-11-20T07:16:32;0.67;;;0.33;;
43146;SDS011;28752;48.266;7.402;2022-11-20T07:18:57;1.37;;;0.73;;
43146;SDS011;28752;48.266;7.402;2022-11-20T07:21:23;1.50;;;0.50;;
43146;SDS011;28752;48.266;7.402;2022-11-20T07:23:48;1.97;;;0.80;;
43146;SDS011;28752;48.266;7.402;2022-11-20T07:26:13;1.27;;;0.40;;
43146;SDS011;28752;48.266;7.402;2022-11-20T07:28:39;1.37;;;0.70;;
43146;SDS011;28752;48.266;7.402;2022-11-20T07:31:04;2.17;;;1.27;;
43146;SDS011;28752;48.266;7.402;2022-11-20T07:33:31;1.08;;;0.73;;
43146;SDS011;28752;48.266;7.402;2022-11-20T07:35:58;1.70;;;0.90;;
43146;SDS011;28752;48.266;7.402;2022-11-20T07:38:24;1.27;;;0.65;;
43146;SDS011;28752;48.266;7.402;2022-11-20T07:40:53;2.22;;;0.88;;
43146;SDS011;28752;48.266;7.402;2022-11-20T07:43:20;1.45;;;0.60;;
43146;SDS011;28752;48.266;7.402;2022-11-20T07:45:45;1.63;;;0.87;;
43146;SDS011;28752;48.266;7.402;2022-11-20T07:48:11;2.53;;;1.07;;
43146;SDS011;28752;48.266;7.402;2022-11-20T07:50:36;1.67;;;0.67;;
43146;SDS011;28752;48.266;7.402;2022-11-20T07:53:05;0.40;;;0.30;;
43146;SDS011;28752;48.266;7.402;2022-11-20T07:55:31;0.98;;;0.50;;
43146;SDS011;28752;48.266;7.402;2022-11-20T08:00:23;2.00;;;0.80;;
43146;SDS011;28752;48.266;7.402;2022-11-20T08:02:49;1.48;;;0.95;;
43146;SDS011;28752;48.266;7.402;2022-11-20T08:05:15;1.30;;;0.60;;
43146;SDS011;28752;48.266;7.402;2022-11-20T08:07:41;1.27;;;0.73;;
43146;SDS011;28752;48.266;7.402;2022-11-20T08:10:08;1.42;;;0.93;;
43146;SDS011;28752;48.266;7.402;2022-11-20T08:12:35;0.90;;;0.50;;
43146;SDS011;28752;48.266;7.402;2022-11-20T08:15:33;2.55;;;0.40;;
43146;SDS011;28752;48.266;7.402;2022-11-20T08:17:59;0.90;;;0.40;;
43146;SDS011;28752;48.266;7.402;2022-11-20T08:20:26;1.88;;;0.73;;
43146;SDS011;28752;48.266;7.402;2022-11-20T08:22:51;1.67;;;0.80;;
43146;SDS011;28752;48.266;7.402;2022-11-20T08:25:17;0.97;;;0.60;;
43146;SDS011;28752;48.266;7.402;2022-11-20T08:27:42;0.83;;;0.47;;
43146;SDS011;28752;48.266;7.402;2022-11-20T08:30:08;1.07;;;0.40;;
43146;SDS011;28752;48.266;7.402;2022-11-20T08:32:34;0.40;;;0.40;;
43146;SDS011;28752;48.266;7.402;2022-11-20T08:35:02;2.38;;;0.73;;
43146;SDS011;28752;48.266;7.402;2022-11-20T08:37:27;0.80;;;0.63;;
43146;SDS011;28752;48.266;7.402;2022-11-20T08:39:52;0.53;;;0.40;;
43146;SDS011;28752;48.266;7.402;2022-11-20T08:42:19;1.77;;;0.73;;
43146;SDS011;28752;48.266;7.402;2022-11-20T08:44:44;1.77;;;0.57;;
43146;SDS011;28752;48.266;7.402;2022-11-20T08:47:09;1.00;;;0.60;;
43146;SDS011;28752;48.266;7.402;2022-11-20T08:49:35;1.37;;;0.80;;
43146;SDS011;28752;48.266;7.402;2022-11-20T08:52:00;2.23;;;0.90;;
43146;SDS011;28752;48.266;7.402;2022-11-20T08:54:25;0.20;;;0.20;;
43146;SDS011;28752;48.266;7.402;2022-11-20T08:56:51;1.13;;;0.40;;
43146;SDS011;28752;48.266;7.402;2022-11-20T08:59:16;0.30;;;0.20;;
43146;SDS011;28752;48.266;7.402;2022-11-20T09:01:42;3.27;;;1.10;;
43146;SDS011;28752;48.266;7.402;2022-11-20T09:04:07;1.23;;;0.47;;
43146;SDS011;28752;48.266;7.402;2022-11-20T09:06:33;1.00;;;0.30;;
43146;SDS011;28752;48.266;7.402;2022-11-20T09:08:58;0.40;;;0.30;;
43146;SDS011;28752;48.266;7.402;2022-11-20T09:11:23;2.40;;;0.70;;
43146;SDS011;28752;48.266;7.402;2022-11-20T09:13:49;0.60;;;0.47;;
43146;SDS011;28752;48.266;7.402;2022-11-20T09:16:14;0.97;;;0.40;;
43146;SDS011;28752;48.266;7.402;2022-11-20T09:18:40;0.50;;;0.30;;
43146;SDS011;28752;48.266;7.402;2022-11-20T09:21:06;0.83;;;0.47;;
43146;SDS011;28752;48.266;7.402;2022-11-20T09:23:38;1.00;;;0.40;;
43146;SDS011;28752;48.266;7.402;2022-11-20T09:26:09;0.17;;;0.08;;
43146;SDS011;28752;48.266;7.402;2022-11-20T09:28:38;1.65;;;0.40;;
43146;SDS011;28752;48.266;7.402;2022-11-20T09:31:07;1.25;;;0.50;;
43146;SDS011;28752;48.266;7.402;2022-11-20T09:33:33;0.65;;;0.20;;
43146;SDS011;28752;48.266;7.402;2022-11-20T09:36:00;0.68;;;0.50;;
43146;SDS011;28752;48.266;7.402;2022-11-20T09:38:25;0.33;;;0.20;;
43146;SDS011;28752;48.266;7.402;2022-11-20T09:40:58;0.73;;;0.73;;
43146;SDS011;28752;48.266;7.402;2022-11-20T09:46:40;0.30;;;0.20;;
43146;SDS011;28752;48.266;7.402;2022-11-20T09:51:57;0.40;;;0.20;;
43146;SDS011;28752;48.266;7.402;2022-11-20T09:54:29;0.43;;;0.22;;
43146;SDS011;28752;48.266;7.402;2022-11-20T09:57:01;0.75;;;0.40;;
43146;SDS011;28752;48.266;7.402;2022-11-20T09:59:46;0.15;;;0.10;;
43146;SDS011;28752;48.266;7.402;2022-11-20T10:04:45;0.70;;;0.40;;
43146;SDS011;28752;48.266;7.402;2022-11-20T10:07:33;0.70;;;0.47;;
43146;SDS011;28752;48.266;7.402;2022-11-20T10:10:04;1.75;;;0.50;;
43146;SDS011;28752;48.266;7.402;2022-11-20T10:21:08;0.30;;;0.20;;
43146;SDS011;28752;48.266;7.402;2022-11-20T10:26:43;0.20;;;0.20;;
43146;SDS011;28752;48.266;7.402;2022-11-20T10:29:26;0.52;;;0.25;;
43146;SDS011;28752;48.266;7.402;2022-11-20T10:32:00;0.75;;;0.25;;
43146;SDS011;28752;48.266;7.402;2022-11-20T10:34:35;0.20;;;0.10;;
43146;SDS011;28752;48.266;7.402;2022-11-20T10:37:27;0.47;;;0.10;;
43146;SDS011;28752;48.266;7.402;2022-11-20T10:42:29;0.40;;;0.20;;
43146;SDS011;28752;48.266;7.402;2022-11-20T10:45:02;0.30;;;0.20;;
43146;SDS011;28752;48.266;7.402;2022-11-20T10:47:40;0.20;;;0.17;;
43146;SDS011;28752;48.266;7.402;2022-11-20T10:50:08;0.93;;;0.20;;
43146;SDS011;28752;48.266;7.402;2022-11-20T10:52:55;0.22;;;0.10;;
43146;SDS011;28752;48.266;7.402;2022-11-20T10:58:29;0.47;;;0.38;;
43146;SDS011;28752;48.266;7.402;2022-11-20T11:01:15;0.10;;;0.10;;
43146;SDS011;28752;48.266;7.402;2022-11-20T11:03:42;0.70;;;0.30;;
43146;SDS011;28752;48.266;7.402;2022-11-20T11:06:17;0.32;;;0.22;;
43146;SDS011;28752;48.266;7.402;2022-11-20T11:08:51;0.30;;;0.20;;
43146;SDS011;28752;48.266;7.402;2022-11-20T11:13:47;0.43;;;0.35;;
43146;SDS011;28752;48.266;7.402;2022-11-20T11:16:19;0.10;;;0.10;;
43146;SDS011;28752;48.266;7.402;2022-11-20T11:18:46;0.65;;;0.32;;
43146;SDS011;28752;48.266;7.402;2022-11-20T11:21:11;0.33;;;0.23;;
43146;SDS011;28752;48.266;7.402;2022-11-20T11:23:40;0.37;;;0.33;;
43146;SDS011;28752;48.266;7.402;2022-11-20T11:26:18;0.57;;;0.40;;
43146;SDS011;28752;48.266;7.402;2022-11-20T11:28:57;0.63;;;0.32;;
43146;SDS011;28752;48.266;7.402;2022-11-20T11:31:25;0.38;;;0.20;;
43146;SDS011;28752;48.266;7.402;2022-11-20T11:33:52;0.95;;;0.28;;
43146;SDS011;28752;48.266;7.402;2022-11-20T11:36:32;0.82;;;0.52;;
43146;SDS011;28752;48.266;7.402;2022-11-20T11:38:59;0.45;;;0.40;;
43146;SDS011;28752;48.266;7.402;2022-11-20T11:41:28;1.02;;;0.38;;
43146;SDS011;28752;48.266;7.402;2022-11-20T11:43:58;0.75;;;0.30;;
43146;SDS011;28752;48.266;7.402;2022-11-20T11:46:54;0.45;;;0.28;;
43146;SDS011;28752;48.266;7.402;2022-11-20T11:49:21;0.32;;;0.20;;
43146;SDS011;28752;48.266;7.402;2022-11-20T11:54:33;0.13;;;0.10;;
43146;SDS011;28752;48.266;7.402;2022-11-20T11:57:49;0.23;;;0.20;;
43146;SDS011;28752;48.266;7.402;2022-11-20T12:00:09;0.52;;;0.32;;
43146;SDS011;28752;48.266;7.402;2022-11-20T12:02:49;0.40;;;0.17;;
43146;SDS011;28752;48.266;7.402;2022-11-20T12:05:23;0.10;;;0.10;;
43146;SDS011;28752;48.266;7.402;2022-11-20T12:08:05;0.45;;;0.30;;
43146;SDS011;28752;48.266;7.402;2022-11-20T12:10:57;0.52;;;0.30;;
43146;SDS011;28752;48.266;7.402;2022-11-20T12:16:17;0.40;;;0.28;;
43146;SDS011;28752;48.266;7.402;2022-11-20T12:18:45;0.55;;;0.20;;
43146;SDS011;28752;48.266;7.402;2022-11-20T12:31:54;2.20;;;0.22;;
43146;SDS011;28752;48.266;7.402;2022-11-20T12:34:36;0.17;;;0.17;;
43146;SDS011;28752;48.266;7.402;2022-11-20T12:37:18;0.40;;;0.17;;
43146;SDS011;28752;48.266;7.402;2022-11-20T12:39:55;0.65;;;0.10;;
43146;SDS011;28752;48.266;7.402;2022-11-20T12:42:49;0.10;;;0.10;;
43146;SDS011;28752;48.266;7.402;2022-11-20T12:48:50;0.15;;;0.10;;
43146;SDS011;28752;48.266;7.402;2022-11-20T12:51:32;0.45;;;0.28;;
43146;SDS011;28752;48.266;7.402;2022-11-20T13:05:11;0.30;;;0.25;;
43146;SDS011;28752;48.266;7.402;2022-11-20T13:07:43;1.48;;;0.68;;
43146;SDS011;28752;48.266;7.402;2022-11-20T13:10:14;0.35;;;0.25;;
43146;SDS011;28752;48.266;7.402;2022-11-20T13:12:45;1.27;;;0.32;;
43146;SDS011;28752;48.266;7.402;2022-11-20T13:15:25;1.23;;;0.30;;
43146;SDS011;28752;48.266;7.402;2022-11-20T13:18:00;0.38;;;0.22;;
43146;SDS011;28752;48.266;7.402;2022-11-20T13:20:36;0.43;;;0.17;;
43146;SDS011;28752;48.266;7.402;2022-11-20T13:23:06;0.47;;;0.20;;
43146;SDS011;28752;48.266;7.402;2022-11-20T13:28:05;2.25;;;0.90;;
43146;SDS011;28752;48.266;7.402;2022-11-20T13:30:52;0.65;;;0.38;;
43146;SDS011;28752;48.266;7.402;2022-11-20T13:33:34;1.20;;;0.30;;
43146;SDS011;28752;48.266;7.402;2022-11-20T13:36:06;0.80;;;0.52;;
43146;SDS011;28752;48.266;7.402;2022-11-20T13:38:48;0.68;;;0.20;;
43146;SDS011;28752;48.266;7.402;2022-11-20T13:43:59;0.43;;;0.30;;
43146;SDS011;28752;48.266;7.402;2022-11-20T13:46:49;2.03;;;0.30;;
43146;SDS011;28752;48.266;7.402;2022-11-20T13:49:29;0.30;;;0.20;;
43146;SDS011;28752;48.266;7.402;2022-11-20T13:55:02;0.13;;;0.10;;
43146;SDS011;28752;48.266;7.402;2022-11-20T14:00:23;0.60;;;0.30;;
43146;SDS011;28752;48.266;7.402;2022-11-20T14:05:31;2.50;;;0.65;;
43146;SDS011;28752;48.266;7.402;2022-11-20T14:08:02;0.30;;;0.30;;
43146;SDS011;28752;48.266;7.402;2022-11-20T14:10:29;0.45;;;0.30;;
43146;SDS011;28752;48.266;7.402;2022-11-20T14:12:55;0.20;;;0.10;;
43146;SDS011;28752;48.266;7.402;2022-11-20T14:15:33;0.57;;;0.30;;
43146;SDS011;28752;48.266;7.402;2022-11-20T14:18:10;2.15;;;0.60;;
43146;SDS011;28752;48.266;7.402;2022-11-20T14:20:37;0.55;;;0.40;;
43146;SDS011;28752;48.266;7.402;2022-11-20T14:23:03;0.30;;;0.25;;
43146;SDS011;28752;48.266;7.402;2022-11-20T14:30:23;0.10;;;0.10;;
43146;SDS011;28752;48.266;7.402;2022-11-20T14:32:55;0.28;;;0.28;;
43146;SDS011;28752;48.266;7.402;2022-11-20T14:35:31;0.30;;;0.28;;
43146;SDS011;28752;48.266;7.402;2022-11-20T14:38:00;1.17;;;0.35;;
43146;SDS011;28752;48.266;7.402;2022-11-20T14:40:31;1.08;;;0.52;;
43146;SDS011;28752;48.266;7.402;2022-11-20T14:43:00;0.20;;;0.20;;
43146;SDS011;28752;48.266;7.402;2022-11-20T14:45:26;1.50;;;0.60;;
43146;SDS011;28752;48.266;7.402;2022-11-20T14:47:53;1.70;;;0.85;;
43146;SDS011;28752;48.266;7.402;2022-11-20T14:50:26;2.13;;;0.82;;
43146;SDS011;28752;48.266;7.402;2022-11-20T14:52:56;0.85;;;0.32;;
43146;SDS011;28752;48.266;7.402;2022-11-20T14:55:28;1.70;;;0.60;;
43146;SDS011;28752;48.266;7.402;2022-11-20T14:57:58;0.68;;;0.30;;
43146;SDS011;28752;48.266;7.402;2022-11-20T15:00:26;0.55;;;0.35;;
43146;SDS011;28752;48.266;7.402;2022-11-20T15:02:52;2.13;;;0.43;;
43146;SDS011;28752;48.266;7.402;2022-11-20T15:05:19;1.55;;;0.68;;
43146;SDS011;28752;48.266;7.402;2022-11-20T15:07:48;0.75;;;0.30;;
43146;SDS011;28752;48.266;7.402;2022-11-20T15:10:25;1.65;;;0.63;;
43146;SDS011;28752;48.266;7.402;2022-11-20T15:12:52;1.77;;;0.70;;
43146;SDS011;28752;48.266;7.402;2022-11-20T15:18:12;1.23;;;0.80;;
43146;SDS011;28752;48.266;7.402;2022-11-20T15:20:39;2.13;;;0.85;;
43146;SDS011;28752;48.266;7.402;2022-11-20T15:23:14;2.40;;;1.00;;
43146;SDS011;28752;48.266;7.402;2022-11-20T15:25:43;3.28;;;1.55;;
43146;SDS011;28752;48.266;7.402;2022-11-20T15:28:29;3.42;;;1.33;;
43146;SDS011;28752;48.266;7.402;2022-11-20T15:30:56;5.47;;;1.80;;
43146;SDS011;28752;48.266;7.402;2022-11-20T15:33:22;1.92;;;1.00;;
43146;SDS011;28752;48.266;7.402;2022-11-20T15:35:48;1.48;;;0.52;;
43146;SDS011;28752;48.266;7.402;2022-11-20T15:38:13;1.43;;;0.70;;
43146;SDS011;28752;48.266;7.402;2022-11-20T15:40:39;0.83;;;0.33;;
43146;SDS011;28752;48.266;7.402;2022-11-20T15:43:04;4.77;;;0.83;;
43146;SDS011;28752;48.266;7.402;2022-11-20T15:45:38;1.35;;;0.50;;
43146;SDS011;28752;48.266;7.402;2022-11-20T15:48:12;0.68;;;0.40;;
43146;SDS011;28752;48.266;7.402;2022-11-20T15:51:01;0.35;;;0.22;;
43146;SDS011;28752;48.266;7.402;2022-11-20T15:53:30;0.50;;;0.47;;
43146;SDS011;28752;48.266;7.402;2022-11-20T15:55:56;2.37;;;0.67;;
43146;SDS011;28752;48.266;7.402;2022-11-20T15:58:21;1.00;;;0.80;;
43146;SDS011;28752;48.266;7.402;2022-11-20T16:00:49;0.55;;;0.52;;
43146;SDS011;28752;48.266;7.402;2022-11-20T16:03:15;1.70;;;0.40;;
43146;SDS011;28752;48.266;7.402;2022-11-20T16:05:41;1.20;;;0.50;;
43146;SDS011;28752;48.266;7.402;2022-11-20T16:08:06;0.70;;;0.20;;
43146;SDS011;28752;48.266;7.402;2022-11-20T16:10:32;0.83;;;0.40;;
43146;SDS011;28752;48.266;7.402;2022-11-20T16:12:58;2.25;;;0.63;;
43146;SDS011;28752;48.266;7.402;2022-11-20T16:15:42;1.15;;;0.60;;
43146;SDS011;28752;48.266;7.402;2022-11-20T16:18:16;1.42;;;0.50;;
43146;SDS011;28752;48.266;7.402;2022-11-20T16:20:44;0.85;;;0.50;;
43146;SDS011;28752;48.266;7.402;2022-11-20T16:23:11;1.05;;;0.47;;
43146;SDS011;28752;48.266;7.402;2022-11-20T16:25:37;1.38;;;0.90;;
43146;SDS011;28752;48.266;7.402;2022-11-20T16:28:02;1.33;;;0.77;;
43146;SDS011;28752;48.266;7.402;2022-11-20T16:30:28;0.63;;;0.43;;
43146;SDS011;28752;48.266;7.402;2022-11-20T16:32:54;1.23;;;0.57;;
43146;SDS011;28752;48.266;7.402;2022-11-20T16:35:19;1.00;;;0.60;;
43146;SDS011;28752;48.266;7.402;2022-11-20T16:37:44;2.43;;;0.60;;
43146;SDS011;28752;48.266;7.402;2022-11-20T16:40:10;1.73;;;0.53;;